Time;durP1;ratioP1;P1;durP2;ratioP2;P2;SDS_P1;SDS_P2;PMS_P1;PMS_P2;Temp;Humidity;BMP_temperature;BMP_pressure;BME280_temperature;BME280_humidity;BME280_pressure;Samples;Min_cycle;Max_cycle;Signal;HPM_P1;HPM_P2
2022/11/16 00:02:03;;;;;;;;;;;18.50;54.50;;;;;;5094383;28;19927;-80
2022/11/16 00:04:29;;;;;;;;;;;18.50;54.50;;;;;;5112702;28;19924;-80
2022/11/16 00:06:54;;;;;;;;;;;18.40;54.40;;;;;;5093591;28;19919;-79
2022/11/16 00:09:21;;;;;;;;;;;18.40;54.60;;;;;;5094221;28;19962;-78
2022/11/16 00:11:50;;;;;;;;;;;18.40;54.50;;;;;;5094427;28;19926;-79
2022/11/16 00:14:16;;;;;;;;;;;18.40;54.50;;;;;;5112557;28;19919;-80
2022/11/16 00:16:42;;;;;;;;;;;18.40;54.60;;;;;;5094508;28;19919;-79
2022/11/16 00:19:09;;;;;;;;;;;18.50;54.80;;;;;;5112537;28;20419;-79
2022/11/16 00:21:34;;;;;;;;;;;18.40;55.50;;;;;;5094630;28;20180;-80
2022/11/16 00:24:00;;;;;;;;;;;18.40;54.70;;;;;;5094661;28;20378;-80
2022/11/16 00:26:26;;;;;;;;;;;18.40;54.80;;;;;;5094259;28;20279;-80
2022/11/16 00:28:52;;;;;;;;;;;18.40;54.80;;;;;;5094471;28;19934;-80
2022/11/16 00:31:18;;;;;;;;;;;18.40;54.90;;;;;;5094490;28;20295;-80
2022/11/16 00:33:43;;;;;;;;;;;18.30;54.90;;;;;;5112533;28;19928;-79
2022/11/16 00:36:10;;;;;;;;;;;18.30;54.80;;;;;;5111995;28;20409;-79
2022/11/16 00:38:36;;;;;;;;;;;18.30;54.90;;;;;;5093690;28;19919;-80
2022/11/16 00:41:02;;;;;;;;;;;18.30;54.90;;;;;;5094099;28;19927;-80
2022/11/16 00:43:28;;;;;;;;;;;18.30;54.90;;;;;;5093877;28;19927;-79
2022/11/16 00:45:53;;;;;;;;;;;18.30;55.00;;;;;;5094072;28;20014;-80
2022/11/16 00:48:19;;;;;;;;;;;18.30;55.00;;;;;;5094019;28;20014;-79
2022/11/16 00:50:44;;;;;;;;;;;18.30;55.00;;;;;;5097643;28;20015;-79
2022/11/16 00:53:12;;;;;;;;;;;18.30;55.10;;;;;;5115924;28;20007;-72
2022/11/16 00:55:37;;;;;;;;;;;18.30;55.10;;;;;;5097660;28;19924;-78
2022/11/16 00:58:03;;;;;;;;;;;18.30;55.20;;;;;;5097920;28;20007;-78
2022/11/16 01:00:28;;;;;;;;;;;18.30;55.20;;;;;;5096627;28;19930;-72
2022/11/16 01:02:54;;;;;;;;;;;18.30;55.20;;;;;;5097306;28;19923;-78
2022/11/16 01:05:21;;;;;;;;;;;18.30;55.30;;;;;;5097743;28;19920;-78
2022/11/16 01:07:46;;;;;;;;;;;18.30;55.40;;;;;;5115807;28;20283;-77
2022/11/16 01:10:14;;;;;;;;;;;18.30;55.40;;;;;;5115854;28;19919;-78
2022/11/16 01:12:40;;;;;;;;;;;18.20;55.40;;;;;;5097033;28;19924;-78
2022/11/16 01:15:07;;;;;;;;;;;18.20;55.40;;;;;;5097600;28;19927;-79
2022/11/16 01:17:34;;;;;;;;;;;18.20;55.40;;;;;;5097249;28;19920;-79
2022/11/16 01:19:59;;;;;;;;;;;18.20;55.50;;;;;;5097335;28;19938;-79
2022/11/16 01:22:25;;;;;;;;;;;18.20;55.50;;;;;;5097214;28;19924;-79
2022/11/16 01:24:50;;;;;;;;;;;18.20;55.60;;;;;;5115234;28;19926;-79
2022/11/16 01:27:16;;;;;;;;;;;18.20;55.60;;;;;;5097498;28;20325;-79
2022/11/16 01:29:41;;;;;;;;;;;18.20;55.60;;;;;;5115692;28;19920;-80
2022/11/16 01:32:07;;;;;;;;;;;18.20;55.70;;;;;;5097404;28;19920;-80
2022/11/16 01:34:33;;;;;;;;;;;18.20;55.60;;;;;;5097009;28;19920;-79
2022/11/16 01:36:58;;;;;;;;;;;18.20;55.70;;;;;;5096955;28;19926;-80
2022/11/16 01:39:24;;;;;;;;;;;18.10;55.70;;;;;;5115277;28;19924;-80
2022/11/16 01:41:49;;;;;;;;;;;18.10;55.80;;;;;;5096879;28;19931;-80
2022/11/16 01:47:13;;;;;;;;;;;18.10;56.50;;;;;;5089770;28;19923;-77
2022/11/16 01:49:42;;;;;;;;;;;18.10;55.80;;;;;;5088850;28;19920;-77
2022/11/16 01:52:09;;;;;;;;;;;18.10;56.00;;;;;;5087653;28;19920;-78
2022/11/16 01:54:36;;;;;;;;;;;18.10;55.80;;;;;;5088549;28;19920;-77
2022/11/16 01:57:03;;;;;;;;;;;18.10;55.90;;;;;;5088670;28;19920;-77
2022/11/16 01:59:29;;;;;;;;;;;18.10;56.00;;;;;;5088392;28;19956;-77
2022/11/16 02:01:55;;;;;;;;;;;18.10;56.00;;;;;;5088422;28;19971;-78
2022/11/16 02:04:21;;;;;;;;;;;18.10;56.00;;;;;;5088579;28;19920;-77
2022/11/16 02:09:53;;;;;;;;;;;18.10;56.00;;;;;;5089797;28;19919;-76
2022/11/16 02:12:38;;;;;;;;;;;18.20;56.30;;;;;;5089586;28;20257;-76
2022/11/16 02:15:17;;;;;;;;;;;18.30;56.00;;;;;;5088444;28;19920;-76
2022/11/16 02:20:44;;;;;;;;;;;19.00;55.10;;;;;;5110308;27;19913;-78
2022/11/16 02:28:35;;;;;;;;;;;20.40;52.40;;;;;;5131722;27;1859013;-77
2022/11/16 02:31:02;;;;;;;;;;;21.00;51.00;;;;;;5173208;27;19926;-77
2022/11/16 02:33:32;;;;;;;;;;;21.70;49.70;;;;;;5153313;27;19961;-77
2022/11/16 02:36:00;;;;;;;;;;;22.20;48.20;;;;;;5153748;27;20005;-77
2022/11/16 02:38:27;;;;;;;;;;;22.70;47.20;;;;;;5171943;27;19926;-77
2022/11/16 02:40:56;;;;;;;;;;;23.20;46.40;;;;;;5153069;27;20341;-78
2022/11/16 02:43:27;;;;;;;;;;;23.40;45.60;;;;;;5153298;27;19919;-79
2022/11/16 02:45:54;;;;;;;;;;;23.80;45.00;;;;;;5153270;27;19926;-78
2022/11/16 02:48:22;;;;;;;;;;;24.10;44.60;;;;;;5153109;27;19930;-78
2022/11/16 02:50:48;;;;;;;;;;;24.30;44.00;;;;;;5152599;27;19967;-78
2022/11/16 02:53:14;;;;;;;;;;;24.50;43.60;;;;;;5171734;27;19923;-79
2022/11/16 02:55:39;;;;;;;;;;;24.50;43.30;;;;;;5153056;27;19926;-79
2022/11/16 02:58:08;;;;;;;;;;;24.70;43.30;;;;;;5152871;27;19930;-79
2022/11/16 03:00:37;;;;;;;;;;;24.70;43.00;;;;;;5153035;27;19919;-80
2022/11/16 03:03:06;;;;;;;;;;;24.80;42.90;;;;;;5153259;27;19926;-80
2022/11/16 03:05:35;;;;;;;;;;;24.90;42.80;;;;;;5153311;27;19926;-80
2022/11/16 03:08:05;;;;;;;;;;;24.90;42.80;;;;;;5152825;27;19995;-79
2022/11/16 03:13:20;;;;;;;;;;;24.90;42.70;;;;;;5152656;27;19968;-81
2022/11/16 03:15:46;;;;;;;;;;;24.90;42.70;;;;;;5152907;27;20431;-82
2022/11/16 03:18:13;;;;;;;;;;;24.90;42.80;;;;;;5153052;27;19963;-81
2022/11/16 03:20:39;;;;;;;;;;;24.70;42.90;;;;;;5152646;27;19926;-80
2022/11/16 03:23:07;;;;;;;;;;;24.70;43.00;;;;;;5152706;27;19930;-81
2022/11/16 03:25:36;;;;;;;;;;;24.60;43.20;;;;;;5152504;27;19923;-82
2022/11/16 03:28:22;;;;;;;;;;;24.50;43.40;;;;;;5151684;27;19998;-80
2022/11/16 03:30:50;;;;;;;;;;;24.40;43.60;;;;;;5171070;27;19919;-81
2022/11/16 03:33:18;;;;;;;;;;;24.20;43.90;;;;;;5152634;27;19919;-81
2022/11/16 03:36:03;;;;;;;;;;;24.10;44.00;;;;;;5152823;27;19919;-81
2022/11/16 03:38:29;;;;;;;;;;;23.90;44.20;;;;;;5146234;27;20366;-80
2022/11/16 03:40:57;;;;;;;;;;;23.90;44.50;;;;;;5138671;27;19930;-80
2022/11/16 03:43:23;;;;;;;;;;;23.80;44.70;;;;;;5138752;27;19919;-81
2022/11/16 03:45:49;;;;;;;;;;;23.70;44.80;;;;;;5157419;27;20396;-80
2022/11/16 03:48:15;;;;;;;;;;;23.70;45.70;;;;;;5156925;27;20018;-80
2022/11/16 03:50:41;;;;;;;;;;;23.60;45.10;;;;;;5156900;27;19919;-80
2022/11/16 03:53:07;;;;;;;;;;;23.60;45.10;;;;;;5138458;27;20359;-79
2022/11/16 03:55:32;;;;;;;;;;;23.60;45.10;;;;;;5138094;27;19929;-79
2022/11/16 03:57:58;;;;;;;;;;;23.60;45.10;;;;;;5137989;27;19919;-78
2022/11/16 04:00:23;;;;;;;;;;;23.60;45.10;;;;;;5137916;27;20010;-79
2022/11/16 04:02:49;;;;;;;;;;;23.70;45.00;;;;;;5156588;27;19922;-79
2022/11/16 04:24:38;;;;;;;;;;;23.90;44.60;;;;;;5137657;27;19918;-78
2022/11/16 04:29:52;;;;;;;;;;;23.70;44.90;;;;;;5137524;27;19995;-78
2022/11/16 04:37:48;;;;;;;;;;;23.50;45.40;;;;;;5155624;27;19926;-78
2022/11/16 04:40:14;;;;;;;;;;;23.60;45.50;;;;;;5137272;27;19923;-78
2022/11/16 04:42:40;;;;;;;;;;;23.60;45.50;;;;;;5155828;27;19915;-78
2022/11/16 04:47:52;;;;;;;;;;;23.60;45.40;;;;;;5136724;27;19967;-78
2022/11/16 04:50:18;;;;;;;;;;;23.60;45.50;;;;;;5154711;27;19927;-78
2022/11/16 04:52:43;;;;;;;;;;;23.50;45.50;;;;;;5137451;27;20262;-78
2022/11/16 04:55:10;;;;;;;;;;;23.50;45.50;;;;;;5136959;27;20323;-77
2022/11/16 04:57:35;;;;;;;;;;;23.60;45.50;;;;;;5136963;27;19942;-77
2022/11/16 05:00:02;;;;;;;;;;;23.60;45.40;;;;;;5155512;27;20370;-78
2022/11/16 05:02:27;;;;;;;;;;;23.60;45.40;;;;;;5136756;27;19926;-78
2022/11/16 05:04:53;;;;;;;;;;;23.70;45.40;;;;;;5136676;27;19919;-78
2022/11/16 05:07:19;;;;;;;;;;;23.70;45.40;;;;;;5155160;27;19926;-77
2022/11/16 05:09:45;;;;;;;;;;;23.60;45.40;;;;;;5136911;27;19927;-71
2022/11/16 05:12:13;;;;;;;;;;;23.60;45.30;;;;;;5136531;27;20207;-77
2022/11/16 05:14:40;;;;;;;;;;;23.60;45.40;;;;;;5136184;27;19941;-79
2022/11/16 05:17:05;;;;;;;;;;;23.60;45.40;;;;;;5136200;27;19968;-79
2022/11/16 05:22:16;;;;;;;;;;;23.70;45.50;;;;;;5136446;27;19919;-79
2022/11/16 05:24:42;;;;;;;;;;;23.60;45.50;;;;;;5136706;27;19926;-79
2022/11/16 05:27:09;;;;;;;;;;;23.60;45.50;;;;;;5133396;27;19941;-79
2022/11/16 05:29:35;;;;;;;;;;;23.60;45.50;;;;;;5133133;27;19923;-80
2022/11/16 05:32:01;;;;;;;;;;;23.50;45.60;;;;;;5132872;27;20378;-79
2022/11/16 05:34:27;;;;;;;;;;;23.50;45.60;;;;;;5134174;27;20100;-80
2022/11/16 05:36:52;;;;;;;;;;;23.60;45.60;;;;;;5132738;27;19919;-80
2022/11/16 05:39:18;;;;;;;;;;;23.50;45.60;;;;;;5133914;27;19931;-81
2022/11/16 05:41:44;;;;;;;;;;;23.50;45.70;;;;;;5132638;27;19923;-81
2022/11/16 05:44:10;;;;;;;;;;;23.50;45.70;;;;;;5133820;27;19927;-81
2022/11/16 05:46:35;;;;;;;;;;;23.50;45.80;;;;;;5132522;27;19923;-82
2022/11/16 05:49:01;;;;;;;;;;;23.50;45.90;;;;;;5133821;27;19926;-82
2022/11/16 05:51:27;;;;;;;;;;;23.50;45.80;;;;;;5133790;27;20010;-82
2022/11/16 05:53:52;;;;;;;;;;;23.50;45.80;;;;;;5132433;27;20013;-80
2022/11/16 05:56:18;;;;;;;;;;;23.50;45.80;;;;;;5132400;27;19927;-80
2022/11/16 05:58:44;;;;;;;;;;;23.50;46.60;;;;;;5133616;27;19940;-80
2022/11/16 06:01:09;;;;;;;;;;;23.50;45.90;;;;;;5133424;27;19964;-80
2022/11/16 06:03:35;;;;;;;;;;;23.50;45.90;;;;;;5132315;27;19920;-80
2022/11/16 06:06:01;;;;;;;;;;;23.50;45.90;;;;;;5132119;27;19920;-80
2022/11/16 06:08:26;;;;;;;;;;;23.50;46.00;;;;;;5132183;27;19923;-79
2022/11/16 06:10:52;;;;;;;;;;;23.50;46.00;;;;;;5132477;27;19972;-79
2022/11/16 06:13:18;;;;;;;;;;;23.40;46.00;;;;;;5132468;27;20336;-80
2022/11/16 06:15:44;;;;;;;;;;;23.50;46.00;;;;;;5132506;27;20362;-81
2022/11/16 06:18:09;;;;;;;;;;;23.40;45.90;;;;;;5133540;27;19926;-81
2022/11/16 06:20:36;;;;;;;;;;;23.40;45.90;;;;;;5132364;27;19920;-82
2022/11/16 06:23:02;;;;;;;;;;;23.40;45.90;;;;;;5132258;27;19919;-82
2022/11/16 06:25:29;;;;;;;;;;;23.50;46.00;;;;;;5132001;28;20381;-83
2022/11/16 06:27:55;;;;;;;;;;;23.40;45.90;;;;;;5131878;28;20270;-82
2022/11/16 06:30:21;;;;;;;;;;;23.50;46.00;;;;;;5133188;28;19980;-82
2022/11/16 06:32:46;;;;;;;;;;;23.50;46.00;;;;;;5133308;27;19956;-83
2022/11/16 06:35:12;;;;;;;;;;;23.40;45.90;;;;;;5137117;27;19967;-76
2022/11/16 06:37:37;;;;;;;;;;;23.50;46.00;;;;;;5142544;27;19997;-83
2022/11/16 06:40:03;;;;;;;;;;;23.70;46.60;;;;;;5149969;27;19919;-76
2022/11/16 06:42:28;;;;;;;;;;;23.50;46.60;;;;;;5136415;27;20018;-76
2022/11/16 06:44:54;;;;;;;;;;;23.50;46.90;;;;;;5137872;27;19923;-76
2022/11/16 06:47:19;;;;;;;;;;;23.40;46.90;;;;;;5132400;27;19923;-76
2022/11/16 06:49:46;;;;;;;;;;;23.40;47.10;;;;;;5136773;27;20006;-76
2022/11/16 06:52:11;;;;;;;;;;;23.40;47.10;;;;;;5149165;27;20010;-77
2022/11/16 06:54:36;;;;;;;;;;;23.40;47.10;;;;;;5149602;27;20010;-78
2022/11/16 06:57:02;;;;;;;;;;;23.50;47.10;;;;;;5149486;27;20344;-77
2022/11/16 06:59:28;;;;;;;;;;;23.50;46.90;;;;;;5146405;27;19925;-76
2022/11/16 07:01:53;;;;;;;;;;;23.60;47.30;;;;;;5136520;27;20393;-78
2022/11/16 07:04:19;;;;;;;;;;;23.60;47.20;;;;;;5107342;27;19927;-76
2022/11/16 07:06:44;;;;;;;;;;;23.60;47.20;;;;;;5119157;27;19978;-79
2022/11/16 07:09:10;;;;;;;;;;;23.70;47.30;;;;;;5134820;27;20460;-76
2022/11/16 07:11:35;;;;;;;;;;;23.70;47.30;;;;;;5131626;27;19926;-77
2022/11/16 07:14:01;;;;;;;;;;;23.90;46.90;;;;;;5137539;27;19976;-75
2022/11/16 07:16:27;;;;;;;;;;;24.10;46.70;;;;;;5133414;27;19923;-76
2022/11/16 07:18:55;;;;;;;;;;;24.10;46.30;;;;;;5138124;27;19919;-78
2022/11/16 07:21:20;;;;;;;;;;;24.30;46.50;;;;;;5138917;27;20385;-74
2022/11/16 07:23:46;;;;;;;;;;;24.30;46.20;;;;;;5130505;27;19969;-75
2022/11/16 07:26:12;;;;;;;;;;;24.30;46.20;;;;;;5136921;27;19923;-72
2022/11/16 07:28:37;;;;;;;;;;;24.30;46.10;;;;;;5145436;27;19923;-75
2022/11/16 07:31:04;;;;;;;;;;;24.20;46.40;;;;;;5135073;27;19957;-75
2022/11/16 07:33:30;;;;;;;;;;;24.20;46.50;;;;;;5141421;27;19925;-75
2022/11/16 07:36:04;;;;;;;;;;;24.20;46.40;;;;;;5136338;27;20157;-75
2022/11/16 07:38:30;;;;;;;;;;;24.20;46.40;;;;;;5135973;27;20296;-76
2022/11/16 07:40:59;;;;;;;;;;;24.20;46.40;;;;;;5137810;27;19924;-76
2022/11/16 07:43:26;;;;;;;;;;;24.10;46.40;;;;;;5145122;27;19934;-76
2022/11/16 07:45:52;;;;;;;;;;;24.10;46.40;;;;;;5138331;27;20261;-76
2022/11/16 07:48:18;;;;;;;;;;;24.00;46.40;;;;;;5132442;27;20010;-76
2022/11/16 07:50:43;;;;;;;;;;;24.00;46.50;;;;;;5143726;27;20221;-76
2022/11/16 07:53:09;;;;;;;;;;;23.90;46.60;;;;;;5137581;27;20389;-76
2022/11/16 07:55:34;;;;;;;;;;;23.80;46.80;;;;;;5143704;27;20435;-76
2022/11/16 07:58:00;;;;;;;;;;;23.70;46.90;;;;;;5137019;27;20440;-76
2022/11/16 08:00:26;;;;;;;;;;;23.70;47.00;;;;;;5138758;27;19962;-77
2022/11/16 08:02:51;;;;;;;;;;;23.60;47.10;;;;;;5140252;27;19927;-76
2022/11/16 08:05:17;;;;;;;;;;;23.50;47.20;;;;;;5139565;27;19949;-76
2022/11/16 08:07:42;;;;;;;;;;;23.50;47.30;;;;;;5143929;27;19930;-76
2022/11/16 08:10:08;;;;;;;;;;;23.50;47.40;;;;;;5139372;27;20418;-76
2022/11/16 08:12:33;;;;;;;;;;;23.40;47.40;;;;;;5139234;27;19968;-76
2022/11/16 08:14:59;;;;;;;;;;;23.40;47.50;;;;;;5137728;27;20306;-76
2022/11/16 08:17:25;;;;;;;;;;;23.40;47.50;;;;;;5140022;27;19919;-76
2022/11/16 08:19:52;;;;;;;;;;;23.40;47.50;;;;;;5141096;27;19919;-76
2022/11/16 08:22:18;;;;;;;;;;;23.40;47.50;;;;;;5137558;27;20610;-76
2022/11/16 08:24:43;;;;;;;;;;;23.40;47.40;;;;;;5139232;27;20397;-77
2022/11/16 08:27:09;;;;;;;;;;;23.40;47.40;;;;;;5140794;27;19927;-76
2022/11/16 08:29:34;;;;;;;;;;;23.40;47.30;;;;;;5142919;27;19930;-76
2022/11/16 08:32:00;;;;;;;;;;;23.50;47.20;;;;;;5156232;27;19968;-76
2022/11/16 08:34:26;;;;;;;;;;;23.40;47.10;;;;;;5145893;27;19923;-76
2022/11/16 08:36:51;;;;;;;;;;;23.40;47.10;;;;;;5147155;27;20444;-76
2022/11/16 08:39:17;;;;;;;;;;;23.40;47.00;;;;;;5146871;27;19926;-76
2022/11/16 08:41:43;;;;;;;;;;;23.50;47.00;;;;;;5136410;27;19930;-77
2022/11/16 08:44:08;;;;;;;;;;;23.50;47.00;;;;;;5141186;27;20450;-76
2022/11/16 08:46:34;;;;;;;;;;;23.50;46.90;;;;;;5150461;27;20326;-76
2022/11/16 08:48:59;;;;;;;;;;;23.50;46.90;;;;;;5156552;27;19927;-76
2022/11/16 08:51:25;;;;;;;;;;;23.50;46.90;;;;;;5144170;27;20046;-76
2022/11/16 08:53:55;;;;;;;;;;;23.50;47.00;;;;;;5142754;27;20370;-76
2022/11/16 08:56:20;;;;;;;;;;;23.50;46.90;;;;;;5141578;27;19967;-77
2022/11/16 08:58:46;;;;;;;;;;;23.50;46.90;;;;;;5153700;27;21754;-76
2022/11/16 09:01:13;;;;;;;;;;;23.50;46.80;;;;;;5135995;27;20434;-76
2022/11/16 09:03:39;;;;;;;;;;;23.50;46.80;;;;;;5139325;27;19930;-76
2022/11/16 09:06:05;;;;;;;;;;;23.50;46.90;;;;;;5134592;27;19934;-76
2022/11/16 09:08:31;;;;;;;;;;;23.50;46.90;;;;;;5139651;27;19927;-76
2022/11/16 09:10:56;;;;;;;;;;;23.50;46.90;;;;;;5138371;27;19927;-75
2022/11/16 09:13:22;;;;;;;;;;;23.50;46.80;;;;;;5141252;27;19941;-75
2022/11/16 09:15:53;;;;;;;;;;;23.60;47.60;;;;;;5138466;27;19949;-75
2022/11/16 09:18:19;;;;;;;;;;;23.50;46.80;;;;;;5135084;27;20371;-77
2022/11/16 09:20:44;;;;;;;;;;;23.50;46.80;;;;;;5143493;27;20005;-76
2022/11/16 09:23:10;;;;;;;;;;;23.50;46.90;;;;;;5140701;27;20070;-76
2022/11/16 09:25:35;;;;;;;;;;;23.50;47.00;;;;;;5143932;27;19927;-76
2022/11/16 09:28:01;;;;;;;;;;;23.50;47.00;;;;;;5146426;27;20130;-76
2022/11/16 09:30:26;;;;;;;;;;;23.50;47.00;;;;;;5144109;27;20369;-77
2022/11/16 09:32:52;;;;;;;;;;;23.50;46.90;;;;;;5140491;27;19933;-74
2022/11/16 09:35:19;;;;;;;;;;;23.50;47.00;;;;;;5149165;27;19934;-74
2022/11/16 09:37:45;;;;;;;;;;;23.50;47.00;;;;;;5134855;27;19927;-75
2022/11/16 09:40:11;;;;;;;;;;;23.50;47.10;;;;;;5150782;27;20386;-74
2022/11/16 09:42:44;;;;;;;;;;;23.50;47.10;;;;;;5129815;27;19927;-76
2022/11/16 09:47:50;;;;;;;;;;;23.60;47.10;;;;;;5090440;27;1914124;-76
2022/11/16 09:50:20;;;;;;;;;;;23.50;47.00;;;;;;5156366;27;20415;-75
2022/11/16 09:52:47;;;;;;;;;;;23.50;47.10;;;;;;5161207;27;19983;-76
2022/11/16 09:58:01;;;;;;;;;;;23.30;47.10;;;;;;5088062;27;19916;-75
2022/11/16 10:00:28;;;;;;;;;;;22.30;46.70;;;;;;5070749;28;20369;-74
2022/11/16 10:02:59;;;;;;;;;;;23.40;47.40;;;;;;5070112;28;19939;-74
2022/11/16 10:05:45;;;;;;;;;;;23.40;47.40;;;;;;5066649;28;19928;-75
2022/11/16 10:08:30;;;;;;;;;;;23.40;47.40;;;;;;5074663;28;19920;-75
2022/11/16 10:13:45;;;;;;;;;;;23.30;47.40;;;;;;5105480;27;1922481;-73
2022/11/16 10:16:30;;;;;;;;;;;23.20;47.50;;;;;;5118745;27;20014;-72
2022/11/16 10:21:56;;;;;;;;;;;23.30;47.60;;;;;;5093698;27;19920;-73
2022/11/16 10:24:25;;;;;;;;;;;23.30;47.50;;;;;;5094354;28;19994;-74
2022/11/16 10:29:53;;;;;;;;;;;23.40;47.50;;;;;;5091164;27;19942;-72
2022/11/16 10:35:08;;;;;;;;;;;23.20;47.60;;;;;;5148853;27;19930;-72
2022/11/16 10:37:35;;;;;;;;;;;23.20;47.60;;;;;;5132388;27;19967;-71
2022/11/16 10:40:10;;;;;;;;;;;23.30;47.60;;;;;;5133666;27;19930;-73
2022/11/16 10:42:38;;;;;;;;;;;23.30;47.60;;;;;;5132980;27;19919;-72
2022/11/16 10:45:16;;;;;;;;;;;23.30;47.50;;;;;;5138442;27;20530;-73
2022/11/16 10:50:31;;;;;;;;;;;23.30;47.60;;;;;;5074697;27;20536;-75
2022/11/16 10:52:57;;;;;;;;;;;23.30;47.90;;;;;;5076024;28;19931;-72
2022/11/16 10:55:23;;;;;;;;;;;23.30;47.90;;;;;;5081058;28;19951;-69
2022/11/16 10:57:53;;;;;;;;;;;23.30;47.90;;;;;;5069290;28;19982;-71
2022/11/16 11:00:38;;;;;;;;;;;21.60;47.00;;;;;;5079285;28;19930;-70
2022/11/16 11:03:04;;;;;;;;;;;23.20;47.90;;;;;;5079200;28;19925;-71
2022/11/16 11:05:30;;;;;;;;;;;23.20;48.10;;;;;;5103322;27;19969;-70
2022/11/16 11:08:10;;;;;;;;;;;23.20;48.20;;;;;;5077189;28;20329;-70
2022/11/16 11:10:37;;;;;;;;;;;23.10;48.20;;;;;;5066718;28;20380;-70
2022/11/16 11:15:41;;;;;;;;;;;23.10;48.20;;;;;;5076299;27;1869783;-70
2022/11/16 11:21:15;;;;;;;;;;;23.10;48.20;;;;;;5048634;27;19932;-74
2022/11/16 11:23:43;;;;;;;;;;;23.20;48.10;;;;;;5060535;28;19949;-75
2022/11/16 11:26:23;;;;;;;;;;;23.10;47.50;;;;;;5055564;28;19932;-77
2022/11/16 11:28:48;;;;;;;;;;;23.10;47.10;;;;;;5065094;28;20019;-76
2022/11/16 11:31:24;;;;;;;;;;;23.00;47.10;;;;;;5057912;28;20004;-69
2022/11/16 11:33:52;;;;;;;;;;;23.00;47.50;;;;;;5042009;28;19928;-73
2022/11/16 11:36:19;;;;;;;;;;;23.00;47.80;;;;;;5046279;28;19932;-74
2022/11/16 11:39:05;;;;;;;;;;;23.10;48.00;;;;;;5042881;28;19939;-74
2022/11/16 11:41:33;;;;;;;;;;;23.10;47.90;;;;;;5045250;28;19921;-74
2022/11/16 11:44:02;;;;;;;;;;;23.20;47.50;;;;;;5043572;28;19924;-74
2022/11/16 11:46:29;;;;;;;;;;;23.40;47.40;;;;;;5048342;28;20332;-74
2022/11/16 11:48:58;;;;;;;;;;;23.40;47.20;;;;;;5045905;28;19925;-74
2022/11/16 11:51:26;;;;;;;;;;;23.50;47.40;;;;;;5049662;28;19931;-72
2022/11/16 11:53:54;;;;;;;;;;;23.50;47.40;;;;;;5048153;28;19921;-75
2022/11/16 11:56:19;;;;;;;;;;;23.60;47.20;;;;;;5047670;28;20340;-73
2022/11/16 11:58:46;;;;;;;;;;;23.80;47.10;;;;;;5049570;28;19925;-74
2022/11/16 12:04:11;;;;;;;;;;;24.00;46.70;;;;;;5099752;27;1870293;-76
2022/11/16 12:06:47;;;;;;;;;;;24.00;46.70;;;;;;5144198;27;19919;-72
2022/11/16 12:17:37;;;;;;;;;;;24.00;46.80;;;;;;5060164;27;1870719;-74
2022/11/16 12:20:15;;;;;;;;;;;23.90;47.00;;;;;;5096186;28;19928;-78
2022/11/16 12:33:40;;;;;;;;;;;23.50;47.80;;;;;;5108722;27;1873353;-76
2022/11/16 12:36:21;;;;;;;;;;;23.40;47.60;;;;;;5140591;27;19920;-75
2022/11/16 12:38:56;;;;;;;;;;;23.40;47.50;;;;;;5137605;27;19923;-73
2022/11/16 12:44:05;;;;;;;;;;;23.20;48.20;;;;;;5077896;27;20376;-71
2022/11/16 12:49:31;;;;;;;;;;;23.20;48.20;;;;;;5082410;27;19938;-71
2022/11/16 12:54:53;;;;;;;;;;;23.40;48.20;;;;;;5096775;27;1869985;-70
2022/11/16 12:57:29;;;;;;;;;;;23.40;48.20;;;;;;5159139;27;19963;-75
2022/11/16 13:03:01;;;;;;;;;;;23.20;47.80;;;;;;5092181;27;19912;-65
2022/11/16 13:05:39;;;;;;;;;;;23.10;47.80;;;;;;5112230;28;19921;-69
2022/11/16 13:08:11;;;;;;;;;;;23.00;48.00;;;;;;5080554;28;20007;-75
2022/11/16 13:10:41;;;;;;;;;;;22.70;48.10;;;;;;5079961;28;20451;-70
2022/11/16 13:13:17;;;;;;;;;;;22.80;48.70;;;;;;5082031;28;19932;-75
2022/11/16 13:15:45;;;;;;;;;;;22.80;48.80;;;;;;5108305;28;19928;-70
2022/11/16 13:18:13;;;;;;;;;;;22.80;48.60;;;;;;5074486;28;20018;-78
2022/11/16 13:31:38;;;;;;;;;;;22.80;48.90;;;;;;5090719;27;1872899;-73
2022/11/16 13:34:05;;;;;;;;;;;22.80;48.50;;;;;;5123861;27;20200;-73
2022/11/16 13:39:12;;;;;;;;;;;22.50;48.80;;;;;;5094945;27;20306;-78
2022/11/16 13:41:39;;;;;;;;;;;22.40;49.00;;;;;;5077296;28;20540;-76
2022/11/16 13:44:11;;;;;;;;;;;22.40;49.30;;;;;;5076670;28;19920;-73
2022/11/16 13:52:02;;;;;;;;;;;21.90;49.50;;;;;;5093848;27;1859986;-76
2022/11/16 13:54:29;;;;;;;;;;;22.10;50.10;;;;;;5113018;27;19962;-77
2022/11/16 13:56:55;;;;;;;;;;;22.10;50.00;;;;;;5117220;27;19984;-71
2022/11/16 13:59:27;;;;;;;;;;;22.00;50.30;;;;;;5145322;27;19919;-79
2022/11/16 14:01:55;;;;;;;;;;;22.00;50.50;;;;;;5123565;27;19951;-71
2022/11/16 14:04:41;;;;;;;;;;;21.90;50.60;;;;;;5129810;27;19926;-71
2022/11/16 14:07:26;;;;;;;;;;;21.90;50.80;;;;;;5128647;27;19955;-75
2022/11/16 14:09:51;;;;;;;;;;;21.80;50.90;;;;;;5128839;27;19966;-75
2022/11/16 14:12:37;;;;;;;;;;;21.80;50.50;;;;;;5125807;27;19967;-76
2022/11/16 14:23:15;;;;;;;;;;;21.60;51.30;;;;;;5106765;27;20371;-74
2022/11/16 14:28:58;;;;;;;;;;;21.60;51.60;;;;;;5118393;27;20363;-77
2022/11/16 14:31:27;;;;;;;;;;;21.70;51.70;;;;;;5087445;28;19984;-74
2022/11/16 14:33:55;;;;;;;;;;;21.60;51.50;;;;;;5087356;28;19959;-76
2022/11/16 14:36:40;;;;;;;;;;;21.50;50.50;;;;;;5088443;28;19959;-76
2022/11/16 14:39:26;;;;;;;;;;;21.50;50.90;;;;;;5082048;28;19969;-77
2022/11/16 14:41:52;;;;;;;;;;;21.50;51.10;;;;;;5078264;28;19920;-79
2022/11/16 14:44:18;;;;;;;;;;;21.40;51.20;;;;;;5087766;28;19931;-82
2022/11/16 14:46:44;;;;;;;;;;;21.20;51.10;;;;;;5088443;28;19949;-83
2022/11/16 14:49:12;;;;;;;;;;;21.20;51.30;;;;;;5106118;28;19924;-83
2022/11/16 14:51:42;;;;;;;;;;;21.10;51.50;;;;;;5105958;28;19920;-83
2022/11/16 14:54:27;;;;;;;;;;;21.10;51.50;;;;;;5087816;28;19934;-84
2022/11/16 14:56:54;;;;;;;;;;;21.00;51.60;;;;;;5089523;28;19920;-74
2022/11/16 14:59:19;;;;;;;;;;;21.00;51.80;;;;;;5108556;28;20419;-78
2022/11/16 15:01:45;;;;;;;;;;;21.00;51.90;;;;;;5107932;28;20015;-78
2022/11/16 15:04:11;;;;;;;;;;;21.00;51.80;;;;;;5107641;28;19927;-78
2022/11/16 15:06:40;;;;;;;;;;;20.90;52.00;;;;;;5087968;28;19924;-71
2022/11/16 15:09:06;;;;;;;;;;;20.90;52.00;;;;;;5107268;28;19920;-83
2022/11/16 15:14:24;;;;;;;;;;;20.90;52.30;;;;;;5087281;28;19959;-71
2022/11/16 15:16:51;;;;;;;;;;;20.90;52.30;;;;;;5088444;28;19931;-66
2022/11/16 15:19:17;;;;;;;;;;;20.90;52.30;;;;;;5087134;28;19920;-77
2022/11/16 15:21:51;;;;;;;;;;;20.90;52.60;;;;;;5085708;28;20391;-78
2022/11/16 15:24:20;;;;;;;;;;;20.90;52.70;;;;;;5106279;28;19920;-78
2022/11/16 15:26:46;;;;;;;;;;;20.90;52.70;;;;;;5084471;28;19960;-78
2022/11/16 15:29:15;;;;;;;;;;;20.90;52.60;;;;;;5084085;28;19959;-77
2022/11/16 15:31:41;;;;;;;;;;;20.90;52.60;;;;;;5086714;28;19928;-72
2022/11/16 15:34:10;;;;;;;;;;;20.90;52.50;;;;;;5084238;28;20538;-77
2022/11/16 15:36:37;;;;;;;;;;;20.90;52.50;;;;;;5085244;28;19920;-77
2022/11/16 15:39:04;;;;;;;;;;;20.80;52.40;;;;;;5077263;28;19920;-78
2022/11/16 15:41:29;;;;;;;;;;;20.90;52.50;;;;;;5072303;28;19928;-72
2022/11/16 15:43:56;;;;;;;;;;;20.80;52.40;;;;;;5072623;28;19921;-78
2022/11/16 15:46:26;;;;;;;;;;;20.80;52.50;;;;;;5071544;28;19987;-73
2022/11/16 15:48:52;;;;;;;;;;;20.80;52.50;;;;;;5071353;28;20368;-78
2022/11/16 15:51:22;;;;;;;;;;;20.80;52.50;;;;;;5070722;28;19934;-78
2022/11/16 15:53:49;;;;;;;;;;;20.80;52.50;;;;;;5070456;28;19928;-78
2022/11/16 15:56:17;;;;;;;;;;;20.70;52.50;;;;;;5070718;28;19920;-77
2022/11/16 15:58:42;;;;;;;;;;;20.70;52.60;;;;;;5071285;28;19967;-78
2022/11/16 16:01:09;;;;;;;;;;;20.70;52.50;;;;;;5072192;28;20001;-78
2022/11/16 16:03:35;;;;;;;;;;;20.60;52.50;;;;;;5072232;28;19920;-78
2022/11/16 16:06:01;;;;;;;;;;;20.60;52.60;;;;;;5072974;28;19985;-77
2022/11/16 16:08:29;;;;;;;;;;;20.50;52.50;;;;;;5071747;28;19985;-76
2022/11/16 16:10:57;;;;;;;;;;;20.50;52.60;;;;;;5071150;28;19927;-77
2022/11/16 16:13:24;;;;;;;;;;;20.50;52.70;;;;;;5071477;28;19924;-72
2022/11/16 16:16:09;;;;;;;;;;;20.50;52.70;;;;;;5071739;28;19921;-78
2022/11/16 16:18:40;;;;;;;;;;;20.40;52.70;;;;;;5071479;28;20322;-73
2022/11/16 16:21:05;;;;;;;;;;;20.40;52.70;;;;;;5071579;28;19920;-78
2022/11/16 16:23:31;;;;;;;;;;;20.30;52.70;;;;;;5073490;28;19920;-77
2022/11/16 16:26:01;;;;;;;;;;;20.30;52.70;;;;;;5073232;28;20287;-78
2022/11/16 16:28:27;;;;;;;;;;;20.30;52.70;;;;;;5071146;28;20133;-78
2022/11/16 16:30:52;;;;;;;;;;;20.30;52.70;;;;;;5070350;28;19927;-78
2022/11/16 16:33:18;;;;;;;;;;;20.20;52.60;;;;;;5071471;28;19927;-78
2022/11/16 16:35:48;;;;;;;;;;;20.20;52.80;;;;;;5070593;28;20425;-71
2022/11/16 16:38:13;;;;;;;;;;;20.20;52.70;;;;;;5071568;28;19931;-72
2022/11/16 16:40:39;;;;;;;;;;;20.20;52.70;;;;;;5071359;28;19925;-79
2022/11/16 16:43:04;;;;;;;;;;;20.20;52.70;;;;;;5073129;28;19982;-79